Terminal Aerodrome Forecast
Issued by NWS

Home | Current Version | Previous Version | Text Only | Print | Product List | Glossary On
Versions: 1 2 3 4 5 6 7 8 9 10 11 12 13 14
000
FTUS43 KICT 192300
TAFHUT
TAF
KHUT 192332Z 2000/2024 16009KT P6SM FEW030
     FM201000 17008KT P6SM FEW009 SCT015
      TEMPO 2011/2015 4SM BR SCT009 BKN015
     FM201500 18015G23KT P6SM SCT050=

USA.gov is the U.S. government's official web portal to all federal, state and local government web resources and services.